createdAt,value
2022-11-18T00:00:58.631Z,2.40
2022-11-18T00:03:31.545Z,2.27
2022-11-18T00:06:03.421Z,2.24
2022-11-18T00:08:35.210Z,2.32
2022-11-18T00:11:10.296Z,2.32
2022-11-18T00:14:14.259Z,2.39
2022-11-18T00:16:46.326Z,2.40
2022-11-18T00:19:19.435Z,2.34
2022-11-18T00:21:51.821Z,2.47
2022-11-18T00:24:23.834Z,2.37
2022-11-18T00:26:55.648Z,2.21
2022-11-18T00:29:28.369Z,2.11
2022-11-18T00:32:00.592Z,2.19
2022-11-18T00:34:32.580Z,2.24
2022-11-18T00:37:04.378Z,2.34
2022-11-18T00:39:36.094Z,2.35
2022-11-18T00:42:26.245Z,2.26
2022-11-18T00:44:57.902Z,2.38
2022-11-18T00:47:29.525Z,2.45
2022-11-18T00:50:01.180Z,2.14
2022-11-18T00:52:33.381Z,2.37
2022-11-18T00:55:06.175Z,2.31
2022-11-18T00:57:37.812Z,2.34
2022-11-18T01:00:12.467Z,2.37
2022-11-18T01:02:44.589Z,2.03
2022-11-18T01:05:16.674Z,2.10
2022-11-18T01:07:48.831Z,1.90
2022-11-18T01:10:20.767Z,1.83
2022-11-18T01:13:11.028Z,1.96
2022-11-18T01:15:45.317Z,2.14
2022-11-18T01:18:17.307Z,2.19
2022-11-18T01:20:49.370Z,2.20
2022-11-18T01:23:22.410Z,1.96
2022-11-18T01:25:54.237Z,2.14
2022-11-18T01:28:25.979Z,2.16
2022-11-18T01:31:04.125Z,1.97
2022-11-18T01:33:36.718Z,1.81
2022-11-18T01:36:18.159Z,1.82
2022-11-18T01:38:51.250Z,1.94
2022-11-18T01:41:25.846Z,1.92
2022-11-18T01:43:59.787Z,2.10
2022-11-18T01:46:33.151Z,2.03
2022-11-18T01:49:08.638Z,1.85
2022-11-18T01:51:47.701Z,1.98
2022-11-18T01:54:25.375Z,2.07
2022-11-18T01:57:00.461Z,2.04
2022-11-18T01:59:36.783Z,1.99
2022-11-18T02:02:13.029Z,1.91
2022-11-18T02:04:48.841Z,1.90
2022-11-18T02:07:22.216Z,1.85
2022-11-18T02:09:54.885Z,1.82
2022-11-18T02:12:26.777Z,1.67
2022-11-18T02:15:00.324Z,1.75
2022-11-18T02:17:44.593Z,1.74
2022-11-18T02:20:35.349Z,1.76
2022-11-18T02:23:35.661Z,1.81
2022-11-18T02:26:43.359Z,1.76
2022-11-18T02:29:21.180Z,1.55
2022-11-18T02:32:00.351Z,1.53
2022-11-18T02:34:41.380Z,1.53
2022-11-18T02:37:21.982Z,1.63
2022-11-18T02:40:00.184Z,1.60
2022-11-18T02:42:36.362Z,1.48
2022-11-18T02:45:14.686Z,1.55
2022-11-18T02:47:49.440Z,1.59
2022-11-18T02:50:27.537Z,1.60
2022-11-18T02:53:02.540Z,1.42
2022-11-18T02:55:39.209Z,1.39
2022-11-18T02:58:12.849Z,1.41
2022-11-18T03:00:45.226Z,1.24
2022-11-18T03:03:29.843Z,1.38
2022-11-18T03:06:11.321Z,1.35
2022-11-18T03:08:52.440Z,1.33
2022-11-18T03:11:29.396Z,1.37
2022-11-18T03:14:13.669Z,1.42
2022-11-18T03:16:53.239Z,1.42
2022-11-18T03:19:31.625Z,1.45
2022-11-18T03:22:12.826Z,1.40
2022-11-18T03:24:50.654Z,1.44
2022-11-18T03:27:27.267Z,1.35
2022-11-18T03:30:05.060Z,1.27
2022-11-18T03:32:42.127Z,1.26
2022-11-18T03:35:18.030Z,1.11
2022-11-18T03:37:51.630Z,0.98
2022-11-18T03:40:29.387Z,0.76
2022-11-18T03:43:07.446Z,0.68
2022-11-18T03:45:43.961Z,0.86
2022-11-18T03:48:18.825Z,0.87
2022-11-18T03:50:56.845Z,0.82
2022-11-18T03:53:32.148Z,0.64
2022-11-18T03:56:15.807Z,0.80
2022-11-18T03:58:54.501Z,0.62
2022-11-18T04:01:35.554Z,0.82
2022-11-18T04:04:07.971Z,0.87
2022-11-18T04:06:44.346Z,0.78
2022-11-18T04:09:19.644Z,0.76
2022-11-18T04:12:05.045Z,0.63
2022-11-18T04:14:43.745Z,0.80
2022-11-18T04:17:17.962Z,0.84
2022-11-18T04:19:51.164Z,0.91
2022-11-18T04:22:23.326Z,0.93
2022-11-18T04:24:55.443Z,0.89
2022-11-18T04:27:27.217Z,1.01
2022-11-18T04:29:59.114Z,1.04
2022-11-18T04:32:31.199Z,0.80
2022-11-18T04:35:03.104Z,0.73
2022-11-18T04:37:34.761Z,0.54
2022-11-18T04:40:07.626Z,0.69
2022-11-18T04:42:39.438Z,0.68
2022-11-18T04:45:12.958Z,0.57
2022-11-18T04:47:45.005Z,0.68
2022-11-18T04:50:17.065Z,0.75
2022-11-18T04:52:48.719Z,0.82
2022-11-18T04:55:20.570Z,0.85
2022-11-18T04:57:52.282Z,0.70
2022-11-18T05:00:24.318Z,0.75
2022-11-18T05:02:56.212Z,0.78
2022-11-18T05:05:27.843Z,0.86
2022-11-18T05:08:00.454Z,0.86
2022-11-18T05:10:32.068Z,0.99
2022-11-18T05:13:03.897Z,0.98
2022-11-18T05:15:36.224Z,0.89
2022-11-18T05:18:11.079Z,0.92
2022-11-18T05:20:42.781Z,0.74
2022-11-18T05:23:14.788Z,0.82
2022-11-18T05:25:46.498Z,0.80
2022-11-18T05:28:18.136Z,0.82
2022-11-18T05:30:50.573Z,0.80
2022-11-18T05:33:22.236Z,0.90
2022-11-18T05:35:55.363Z,0.90
2022-11-18T05:38:27.449Z,0.82
2022-11-18T05:40:59.287Z,0.87
2022-11-18T05:43:31.990Z,1.00
2022-11-18T05:46:02.718Z,0.87
2022-11-18T05:48:35.266Z,0.89
2022-11-18T05:51:07.701Z,1.00
2022-11-18T05:53:39.464Z,0.84
2022-11-18T05:56:20.215Z,0.87
2022-11-18T05:58:52.224Z,0.84
2022-11-18T06:01:29.029Z,0.87
2022-11-18T06:04:03.770Z,0.74
2022-11-18T06:06:36.060Z,0.91
2022-11-18T06:09:09.754Z,0.87
2022-11-18T06:11:46.152Z,1.00
2022-11-18T06:14:22.517Z,1.01
2022-11-18T06:16:57.655Z,0.96
2022-11-18T06:19:29.860Z,0.84
2022-11-18T06:22:02.578Z,0.84
2022-11-18T06:24:35.000Z,0.96
2022-11-18T06:27:08.135Z,0.79
2022-11-18T06:29:39.842Z,0.72
2022-11-18T06:32:13.199Z,0.76
2022-11-18T06:34:45.388Z,0.95
2022-11-18T06:37:18.756Z,0.81
2022-11-18T06:39:50.995Z,0.89
2022-11-18T06:42:40.602Z,0.92
2022-11-18T06:45:13.857Z,0.98
2022-11-18T06:47:46.532Z,0.86
2022-11-18T06:50:19.207Z,0.91
2022-11-18T06:52:49.949Z,1.10
2022-11-18T06:55:22.346Z,1.20
2022-11-18T06:57:55.764Z,1.18
2022-11-18T07:00:28.395Z,1.15
2022-11-18T07:03:03.240Z,0.99
2022-11-18T07:05:35.287Z,1.08
2022-11-18T07:08:08.064Z,0.97
2022-11-18T07:10:40.284Z,1.14
2022-11-18T07:13:12.294Z,1.24
2022-11-18T07:15:44.503Z,1.28
2022-11-18T07:18:16.540Z,1.29
2022-11-18T07:20:48.602Z,1.14
2022-11-18T07:23:22.317Z,1.07
2022-11-18T07:25:57.080Z,1.17
2022-11-18T07:28:30.432Z,1.18
2022-11-18T07:31:07.919Z,1.09
2022-11-18T07:33:41.543Z,0.93
2022-11-18T07:36:15.768Z,0.99
2022-11-18T07:38:48.285Z,1.14
2022-11-18T07:41:21.656Z,1.23
2022-11-18T07:44:00.110Z,1.20
2022-11-18T07:46:35.334Z,1.16
2022-11-18T07:49:09.717Z,1.26
2022-11-18T07:51:42.774Z,1.33
2022-11-18T07:54:17.144Z,1.17
2022-11-18T07:56:48.939Z,1.11
2022-11-18T07:59:20.887Z,1.15
2022-11-18T08:01:52.857Z,1.14
2022-11-18T08:04:25.044Z,1.12
2022-11-18T08:06:59.033Z,1.22
2022-11-18T08:09:31.384Z,1.32
2022-11-18T08:12:03.369Z,1.09
2022-11-18T08:14:35.846Z,0.80
2022-11-18T08:17:07.701Z,0.89
2022-11-18T08:19:39.835Z,0.95
2022-11-18T08:22:12.614Z,0.99
2022-11-18T08:24:44.642Z,1.06
2022-11-18T08:27:16.404Z,0.98
2022-11-18T08:29:48.675Z,0.88
2022-11-18T08:32:20.950Z,0.92
2022-11-18T08:34:52.956Z,1.09
2022-11-18T08:37:24.974Z,1.20
2022-11-18T08:39:57.369Z,1.14
2022-11-18T08:42:34.097Z,1.06
2022-11-18T08:45:08.541Z,0.84
2022-11-18T08:47:40.713Z,0.81
2022-11-18T08:50:13.761Z,1.00
2022-11-18T08:52:45.415Z,1.16
2022-11-18T08:55:17.296Z,1.23
2022-11-18T08:57:49.741Z,1.27
2022-11-18T09:00:22.548Z,1.35
2022-11-18T09:02:55.239Z,1.21
2022-11-18T09:05:26.867Z,1.17
2022-11-18T09:07:58.723Z,1.15
2022-11-18T09:10:30.437Z,1.27
2022-11-18T09:13:24.893Z,1.23
2022-11-18T09:15:53.869Z,1.14
2022-11-18T09:18:24.512Z,1.23
2022-11-18T09:21:00.615Z,1.27
2022-11-18T09:23:34.092Z,1.36
2022-11-18T09:26:08.553Z,1.29
2022-11-18T09:28:40.550Z,1.16
2022-11-18T09:31:14.600Z,1.14
2022-11-18T09:33:47.356Z,1.11
2022-11-18T09:36:19.105Z,1.23
2022-11-18T09:38:53.514Z,1.35
2022-11-18T09:41:44.832Z,1.19
2022-11-18T09:44:42.823Z,1.27
2022-11-18T09:47:30.898Z,1.39
2022-11-18T09:50:26.904Z,1.54
2022-11-18T09:53:11.930Z,1.44
2022-11-18T09:55:43.961Z,1.55
2022-11-18T09:58:19.911Z,1.66
2022-11-18T10:00:51.713Z,1.83
2022-11-18T10:03:29.892Z,1.89
2022-11-18T10:06:19.127Z,1.89
2022-11-18T10:09:06.989Z,1.95
2022-11-18T10:11:51.943Z,2.04
2022-11-18T10:14:39.865Z,2.09
2022-11-18T10:17:32.535Z,2.03
2022-11-18T10:20:21.294Z,1.94
2022-11-18T10:22:57.464Z,2.06
2022-11-18T10:25:29.432Z,1.64
2022-11-18T10:28:17.972Z,1.53
2022-11-18T10:30:51.756Z,1.73
2022-11-18T10:33:32.624Z,1.84
2022-11-18T10:36:30.893Z,1.93
2022-11-18T10:39:14.591Z,2.13
2022-11-18T10:41:53.391Z,1.98
2022-11-18T10:44:44.635Z,2.44
2022-11-18T10:47:33.948Z,2.43
2022-11-18T10:50:30.867Z,2.82
2022-11-18T10:53:03.073Z,2.62
2022-11-18T10:55:35.107Z,2.72
2022-11-18T10:58:17.112Z,2.88
2022-11-18T11:00:50.932Z,3.03
2022-11-18T11:03:37.155Z,3.09
2022-11-18T11:06:32.026Z,3.04
2022-11-18T11:09:08.156Z,2.94
2022-11-18T11:11:43.643Z,3.01
2022-11-18T11:14:28.351Z,2.57
2022-11-18T11:17:09.566Z,2.53
2022-11-18T11:19:49.092Z,2.32
2022-11-18T11:22:21.364Z,2.48
2022-11-18T11:24:53.542Z,2.65
2022-11-18T11:30:47.221Z,2.66
2022-11-18T11:33:27.796Z,2.69
2022-11-18T11:36:15.151Z,2.57
2022-11-18T11:39:04.223Z,2.50
2022-11-18T11:41:48.111Z,2.63
2022-11-18T11:44:41.301Z,2.77
2022-11-18T11:47:36.014Z,2.90
2022-11-18T11:50:19.676Z,2.96
2022-11-18T11:53:05.935Z,2.92
2022-11-18T11:55:45.888Z,3.25
2022-11-18T11:58:38.414Z,3.18
2022-11-18T12:01:20.137Z,3.06
2022-11-18T12:03:57.886Z,2.82
2022-11-18T12:06:30.236Z,2.85
2022-11-18T12:09:10.640Z,3.01
2022-11-18T12:11:49.897Z,2.97
2022-11-18T12:14:34.652Z,2.68
2022-11-18T12:17:16.248Z,2.70
2022-11-18T12:19:48.844Z,2.79
2022-11-18T12:22:20.665Z,2.92
2022-11-18T12:24:52.506Z,2.95
2022-11-18T12:27:59.982Z,2.83
2022-11-18T12:30:31.893Z,2.84
2022-11-18T12:33:03.949Z,2.86
2022-11-18T12:35:36.497Z,2.79
2022-11-18T12:38:28.397Z,2.80
2022-11-18T12:41:20.116Z,2.94
2022-11-18T12:44:14.147Z,2.88
2022-11-18T12:46:56.299Z,2.89
2022-11-18T12:50:12.775Z,2.78
2022-11-18T12:52:57.699Z,2.86
2022-11-18T12:55:34.503Z,2.50
2022-11-18T12:58:21.224Z,2.65
2022-11-18T13:01:06.209Z,2.80
2022-11-18T13:03:38.619Z,2.86
2022-11-18T13:06:32.926Z,2.80
2022-11-18T13:09:09.219Z,2.67
2022-11-18T13:11:48.627Z,2.66
2022-11-18T13:14:43.565Z,2.75
2022-11-18T13:17:48.341Z,2.55
2022-11-18T13:20:27.346Z,2.65
2022-11-18T13:23:18.940Z,2.66
2022-11-18T13:25:51.995Z,2.72
2022-11-18T13:28:34.196Z,2.72
2022-11-18T13:31:14.356Z,3.00
2022-11-18T13:33:46.166Z,2.99
2022-11-18T13:36:24.307Z,2.98
2022-11-18T13:39:01.238Z,2.93
2022-11-18T13:41:34.854Z,2.97
2022-11-18T13:44:21.132Z,2.90
2022-11-18T13:46:57.371Z,2.82
2022-11-18T13:49:48.896Z,2.92
2022-11-18T13:52:29.284Z,2.95
2022-11-18T13:55:04.243Z,2.82
2022-11-18T13:57:37.727Z,2.93
2022-11-18T14:00:24.403Z,2.93
2022-11-18T14:03:00.994Z,3.04
2022-11-18T14:05:32.961Z,2.99
2022-11-18T14:08:24.339Z,2.74
2022-11-18T14:10:56.153Z,2.85
2022-11-18T14:13:30.401Z,2.89
2022-11-18T14:16:03.739Z,2.77
2022-11-18T14:18:37.542Z,2.75
2022-11-18T14:21:12.803Z,2.72
2022-11-18T14:23:46.914Z,2.68
2022-11-18T14:26:31.315Z,2.58
2022-11-18T14:29:17.444Z,2.55
2022-11-18T14:32:14.146Z,2.45
2022-11-18T14:34:58.312Z,2.35
2022-11-18T14:37:31.338Z,2.38
2022-11-18T14:40:04.957Z,2.36
2022-11-18T14:42:39.696Z,2.31
2022-11-18T14:45:14.288Z,2.37
2022-11-18T14:47:48.639Z,2.24
2022-11-18T14:50:20.805Z,2.14
2022-11-18T14:52:53.141Z,2.10
2022-11-18T14:55:24.757Z,1.89
2022-11-18T14:57:56.600Z,2.06
2022-11-18T15:00:28.734Z,1.99
2022-11-18T15:03:00.651Z,1.94
2022-11-18T15:05:32.585Z,1.98
2022-11-18T15:08:07.792Z,1.90
2022-11-18T15:10:41.354Z,1.87
2022-11-18T15:13:13.596Z,1.85
2022-11-18T15:15:45.505Z,1.83
2022-11-18T15:18:17.314Z,1.99
2022-11-18T15:20:49.222Z,1.99
2022-11-18T15:23:23.487Z,1.75
2022-11-18T15:25:57.578Z,1.77
2022-11-18T15:28:30.191Z,1.60
2022-11-18T15:31:02.163Z,1.67
2022-11-18T15:33:33.888Z,1.65
2022-11-18T15:36:10.619Z,1.65
2022-11-18T15:38:44.549Z,1.48
2022-11-18T15:41:18.926Z,1.57
2022-11-18T15:43:51.676Z,1.47
2022-11-18T15:46:23.425Z,1.43
2022-11-18T15:48:56.886Z,1.45
2022-11-18T15:51:30.781Z,1.48
2022-11-18T15:54:03.093Z,1.39
2022-11-18T15:56:37.687Z,1.32
2022-11-18T15:59:11.678Z,1.44
2022-11-18T16:01:45.938Z,1.51
2022-11-18T16:04:21.834Z,1.36
2022-11-18T16:06:54.862Z,1.41
2022-11-18T16:09:48.837Z,1.43
2022-11-18T16:12:38.663Z,1.44
2022-11-18T16:15:31.325Z,1.35
2022-11-18T16:18:06.870Z,1.41
2022-11-18T16:20:40.290Z,1.39
2022-11-18T16:23:12.666Z,1.40
2022-11-18T16:25:47.751Z,1.38
2022-11-18T16:28:20.584Z,1.35
2022-11-18T16:31:08.949Z,1.34
2022-11-18T16:33:42.155Z,1.42
2022-11-18T16:36:14.307Z,1.36
2022-11-18T16:38:46.760Z,1.42
2022-11-18T16:41:33.474Z,1.44
2022-11-18T16:44:07.452Z,1.46
2022-11-18T16:46:41.508Z,1.39
2022-11-18T16:49:17.118Z,1.49
2022-11-18T16:51:51.888Z,1.48
2022-11-18T16:54:25.787Z,1.48
2022-11-18T16:56:59.637Z,1.49
2022-11-18T16:59:34.102Z,1.46
2022-11-18T17:02:12.492Z,1.53
2022-11-18T17:04:45.251Z,1.40
2022-11-18T17:07:17.733Z,1.57
2022-11-18T17:09:49.757Z,1.48
2022-11-18T17:12:21.875Z,1.36
2022-11-18T17:14:53.545Z,1.31
2022-11-18T17:17:25.817Z,1.37
2022-11-18T17:19:58.027Z,1.41
2022-11-18T17:22:30.012Z,1.37
2022-11-18T17:25:05.443Z,1.31
2022-11-18T17:27:38.761Z,1.40
2022-11-18T17:30:12.905Z,1.37
2022-11-18T17:32:45.828Z,1.26
2022-11-18T17:35:18.794Z,1.17
2022-11-18T17:37:50.882Z,1.07
2022-11-18T17:40:22.843Z,1.04
2022-11-18T17:42:54.542Z,1.08
2022-11-18T17:45:26.484Z,1.20
2022-11-18T17:47:58.718Z,1.09
2022-11-18T17:50:30.846Z,1.22
2022-11-18T17:53:02.697Z,1.21
2022-11-18T17:55:36.448Z,1.16
2022-11-18T17:58:08.576Z,1.34
2022-11-18T18:00:40.937Z,1.38
2022-11-18T18:03:12.721Z,1.23
2022-11-18T18:05:47.002Z,1.23
2022-11-18T18:08:19.581Z,1.26
2022-11-18T18:10:51.368Z,1.18
2022-11-18T18:13:41.225Z,1.26
2022-11-18T18:16:14.331Z,1.27
2022-11-18T18:18:47.164Z,1.18
2022-11-18T18:21:22.066Z,1.34
2022-11-18T18:23:55.284Z,1.40
2022-11-18T18:26:31.493Z,1.28
2022-11-18T18:29:07.413Z,1.38
2022-11-18T18:31:39.984Z,1.32
2022-11-18T18:34:11.885Z,1.35
2022-11-18T18:36:45.246Z,1.54
2022-11-18T18:39:20.491Z,1.56
2022-11-18T18:41:54.255Z,1.39
2022-11-18T18:44:46.295Z,1.24
2022-11-18T18:47:18.130Z,1.43
2022-11-18T18:49:49.880Z,1.38
2022-11-18T18:52:21.770Z,1.43
2022-11-18T18:54:53.877Z,1.41
2022-11-18T18:57:25.973Z,1.24
2022-11-18T18:59:57.961Z,1.27
2022-11-18T19:02:29.818Z,1.14
2022-11-18T19:05:01.560Z,1.34
2022-11-18T19:07:33.400Z,1.36
2022-11-18T19:10:07.433Z,1.58
2022-11-18T19:12:51.662Z,1.62
2022-11-18T19:15:23.539Z,1.68
2022-11-18T19:17:55.435Z,1.73
2022-11-18T19:20:37.576Z,1.77
2022-11-18T19:23:11.228Z,1.74
2022-11-18T19:25:43.971Z,1.80
2022-11-18T19:28:15.715Z,1.78
2022-11-18T19:30:47.772Z,1.73
2022-11-18T19:33:20.341Z,1.64
2022-11-18T19:35:50.865Z,1.54
2022-11-18T19:38:23.732Z,1.42
2022-11-18T19:41:00.890Z,1.35
2022-11-18T19:43:34.363Z,1.13
2022-11-18T19:46:07.171Z,0.99
2022-11-18T19:48:37.595Z,1.08
2022-11-18T19:51:12.854Z,1.20
2022-11-18T19:53:45.149Z,1.13
2022-11-18T19:56:19.430Z,1.10
2022-11-18T19:58:52.708Z,0.91
2022-11-18T20:01:27.770Z,0.90
2022-11-18T20:04:03.273Z,0.92
2022-11-18T20:06:37.163Z,0.69
2022-11-18T20:09:11.099Z,0.77
2022-11-18T20:11:44.010Z,0.73
2022-11-18T20:14:15.828Z,0.82
2022-11-18T20:16:47.874Z,0.78
2022-11-18T20:19:20.186Z,0.86
2022-11-18T20:21:50.673Z,0.88
2022-11-18T20:24:22.476Z,0.76
2022-11-18T20:26:54.956Z,0.82
2022-11-18T20:29:27.734Z,0.90
2022-11-18T20:31:58.576Z,1.03
2022-11-18T20:34:30.790Z,0.93
2022-11-18T20:37:03.591Z,1.09
2022-11-18T20:39:36.650Z,1.08
2022-11-18T20:42:26.002Z,1.08
2022-11-18T20:44:59.058Z,0.99
2022-11-18T20:47:32.063Z,1.07
2022-11-18T20:50:08.374Z,1.13
2022-11-18T20:52:40.925Z,1.25
2022-11-18T20:55:13.071Z,1.20
2022-11-18T20:57:46.105Z,1.26
2022-11-18T21:00:19.866Z,1.20
2022-11-18T21:02:52.025Z,1.11
2022-11-18T21:05:24.275Z,1.19
2022-11-18T21:07:56.223Z,1.13
2022-11-18T21:10:28.380Z,1.05
2022-11-18T21:13:18.069Z,1.07
2022-11-18T21:15:50.997Z,1.05
2022-11-18T21:18:22.920Z,1.19
2022-11-18T21:21:16.935Z,1.08
2022-11-18T21:23:54.046Z,1.15
2022-11-18T21:26:27.841Z,1.21
2022-11-18T21:29:02.689Z,0.96
2022-11-18T21:31:35.834Z,0.94
2022-11-18T21:34:08.863Z,1.22
2022-11-18T21:36:45.045Z,1.24
2022-11-18T21:39:19.633Z,1.00
2022-11-18T21:41:55.806Z,1.04
2022-11-18T21:44:28.955Z,1.08
2022-11-18T21:47:01.050Z,1.02
2022-11-18T21:49:33.061Z,1.06
2022-11-18T21:52:05.016Z,1.04
2022-11-18T21:54:36.819Z,0.87
2022-11-18T21:57:08.604Z,0.90
2022-11-18T21:59:40.428Z,1.04
2022-11-18T22:02:15.321Z,1.06
2022-11-18T22:04:54.468Z,0.91
2022-11-18T22:07:27.298Z,0.95
2022-11-18T22:09:59.577Z,0.90
2022-11-18T22:12:31.368Z,0.75
2022-11-18T22:15:03.538Z,0.80
2022-11-18T22:17:35.414Z,0.78
2022-11-18T22:20:09.226Z,0.62
2022-11-18T22:22:41.530Z,0.56
2022-11-18T22:25:13.785Z,0.64
2022-11-18T22:27:45.719Z,0.55
2022-11-18T22:30:18.230Z,0.59
2022-11-18T22:32:50.053Z,0.52
2022-11-18T22:35:22.072Z,0.59
2022-11-18T22:37:53.797Z,0.39
2022-11-18T22:40:26.578Z,0.40
2022-11-18T22:42:56.878Z,0.23
2022-11-18T22:45:28.951Z,0.35
2022-11-18T22:48:01.105Z,0.30
2022-11-18T22:50:33.217Z,0.18
2022-11-18T22:53:05.109Z,0.32
2022-11-18T22:55:36.742Z,0.38
2022-11-18T22:58:08.781Z,0.33
2022-11-18T23:00:40.707Z,0.24
2022-11-18T23:03:12.525Z,0.03
2022-11-18T23:05:47.966Z,0.27
2022-11-18T23:08:19.876Z,0.26
2022-11-18T23:10:52.104Z,0.31
2022-11-18T23:13:42.670Z,0.20
2022-11-18T23:16:14.406Z,0.10
2022-11-18T23:18:47.542Z,0.19
2022-11-18T23:21:20.258Z,0.28
2022-11-18T23:23:50.474Z,0.18
2022-11-18T23:26:23.943Z,0.29
2022-11-18T23:28:55.973Z,0.34
2022-11-18T23:31:29.077Z,0.19
2022-11-18T23:34:01.212Z,0.03
2022-11-18T23:36:33.310Z,-0.18
2022-11-18T23:39:05.310Z,-0.29
2022-11-18T23:41:37.282Z,-0.19
2022-11-18T23:44:09.916Z,-0.26
2022-11-18T23:46:40.261Z,-0.29
2022-11-18T23:49:12.547Z,-0.37
2022-11-18T23:51:44.175Z,-0.50
2022-11-18T23:54:15.945Z,-0.59
2022-11-18T23:56:47.681Z,-0.58
2022-11-18T23:59:21.706Z,-0.72
